»·PEaware :: N72DM KRNM-KSNA

N72DM :: KRNM-KSNA

FLIGHT INFORMATION

Flight Status: Arrived
Operator: Privately registered:
United States
More flights under this callsign
Pilot: Roman S. (31940)
Aircraft: PIPER PA-28 CHEROKEE ARCHER
(PA28)
More flights by this aircraft type
Origin: KRNM Ramona
United States
Destination: KSNA John Wayne-Orange Co
United States
More flights between these airports :: More routes between these airports
Route:
File this flight plan on PilotEdge
Remarks: newport
Altitude:
(Current/Filed)
0ft
Speed:
(Current/Filed)
0kts
Departed: 13-Jan-21 06:37 PM
Arrived: 13-Jan-21 07:15 PM
Distance/Time
Traveled:
61nm/0:38
Distance/Time
To Go:
Arrived

Flight Plot

Page will automatically refresh every two minutes.


Map Options




Map Legend


Flown Route
Filed Route
Departure Airport
Arrival Airport
Navaid (VOR, NDB)
Fix

Horizontal Profiles

Position Reports

Time Latitude Longitude Heading Altitude Ground
Speed
13-Jan-21 18:32 33.039899 -116.910571 88 1396ft 0kts
13-Jan-21 18:33 33.039899 -116.910558 89 1396ft 1kts
13-Jan-21 18:34 33.038885 -116.908566 103 1398ft 7kts
13-Jan-21 18:35 33.038437 -116.907245 186 1399ft 4kts
13-Jan-21 18:36 33.039780 -116.922832 274 1609ft 58kts
13-Jan-21 18:37 33.039706 -116.940711 261 1972ft 54kts
13-Jan-21 18:38 33.035223 -116.957591 255 2270ft 55kts
13-Jan-21 18:39 33.028712 -116.978481 251 2522ft 70kts
13-Jan-21 18:40 33.024890 -117.001219 267 2857ft 69kts
13-Jan-21 18:41 33.025642 -117.024763 281 3136ft 70kts
13-Jan-21 18:42 33.031104 -117.048249 286 3395ft 78kts
13-Jan-21 18:43 33.038834 -117.073293 332 3528ft 82kts
13-Jan-21 18:44 33.054734 -117.090900 313 3731ft 82kts
13-Jan-21 18:45 33.067468 -117.113263 293 4000ft 68kts
13-Jan-21 18:46 33.072547 -117.138645 289 4178ft 80kts
13-Jan-21 18:47 33.078620 -117.167582 280 4493ft 101kts
13-Jan-21 18:48 33.085110 -117.203720 288 4718ft 125kts
13-Jan-21 18:49 33.097106 -117.244968 291 4487ft 139kts
13-Jan-21 18:50 33.111117 -117.285739 298 4434ft 131kts
13-Jan-21 18:51 33.130694 -117.321257 311 4463ft 129kts
13-Jan-21 18:52 33.153343 -117.354609 313 4427ft 126kts
13-Jan-21 18:53 33.173873 -117.387503 307 4560ft 126kts
13-Jan-21 18:54 33.196599 -117.421023 323 4461ft 123kts
13-Jan-21 18:55 33.220426 -117.450353 313 4571ft 126kts
13-Jan-21 18:56 33.241458 -117.485630 307 4481ft 126kts
13-Jan-21 18:57 33.263589 -117.517809 326 4540ft 122kts
13-Jan-21 18:58 33.292136 -117.542435 327 4503ft 119kts
13-Jan-21 18:59 33.319601 -117.567712 322 4459ft 129kts
13-Jan-21 19:00 33.341885 -117.598120 306 4728ft 119kts
13-Jan-21 19:01 33.367201 -117.629047 320 4511ft 122kts
13-Jan-21 19:02 33.395581 -117.652548 331 4442ft 131kts
13-Jan-21 19:03 33.424786 -117.674620 335 4568ft 123kts
13-Jan-21 19:04 33.453922 -117.697946 326 4493ft 128kts
13-Jan-21 19:05 33.481203 -117.724769 322 4501ft 123kts
13-Jan-21 19:06 33.506729 -117.754498 321 4283ft 132kts
13-Jan-21 19:07 33.540163 -117.776785 338 3513ft 140kts
13-Jan-21 19:08 33.573711 -117.792150 339 3495ft 120kts
13-Jan-21 19:09 33.602413 -117.813591 328 3507ft 107kts
13-Jan-21 19:10 33.626439 -117.835226 328 2622ft 101kts
13-Jan-21 19:11 33.651282 -117.852082 337 1337ft 104kts
13-Jan-21 19:12 33.673216 -117.852589 22 1060ft 80kts
13-Jan-21 19:13 33.687591 -117.856186 260 569ft 82kts
13-Jan-21 19:14 33.674265 -117.867947 229 59ft 17kts
13-Jan-21 19:15 33.674353 -117.868459 323 57ft 0kts
13-Jan-21 19:16 33.675975 -117.869882 279 55ft 6kts
13-Jan-21 19:17 33.675527 -117.871671 41 52ft 0kts
13-Jan-21 19:24 33.675527 -117.871671 41 52ft 0kts
13-Jan-21 19:25 33.675527 -117.871671 41 52ft 0kts
13-Jan-21 19:26 33.675527 -117.871671 41 52ft 0kts
13-Jan-21 19:27 33.675527 -117.871671 41 52ft 0kts
13-Jan-21 19:28 33.675527 -117.871671 41 52ft 0kts
13-Jan-21 19:29 33.675527 -117.871671 41 52ft 0kts

Navigation Log

Ident Type
Flight plan parsing failed, navigation log unavailable